Airfield :
LOGIN :

Register | Disclaimer

   EN    FR    IT 

 










Legend :    VFR   Marginal VFR   IFR   Intensive IFR   Very Intensive IFR
Visi :
Ceiling :
>= 8 km
>= 3000ft
5 to 8 km
1000 to 3000 ft
1500m to 5 km
500 to 1000 ft
800 to 1500m
200 to 500 ft
< 800m
< 200 ft
Symbols :   Thunderstorms  Fog  Heavy snow  Heavy precipitations  Wind > 20 kt
SIGMETs :     Misc.  Thunderstorms  Icing  Turbulence  Mountain Waves  Volcanic Ashes






- Airport Elevation : 284 ft


EGUW - RAF Wattisham

CURRENT METAR :
  • 180050Z AUTO 02009KT 1700 BR BKN003/// BKN018/// 15/14 Q1014 RERA

EXPIRED METARs :
  • 172350Z AUTO 03008KT 4000 BR SCT005/// OVC018/// 15/14 Q1014
  • 172310Z 02009KT 6000 BR BKN005 OVC018 15/14 Q1014 YLO1 NOSIG RMK YLO1 YLO1
  • 172301Z 02008KT 8000 BR FEW006 BKN018 15/14 Q1014 TEMPO SCT006 RMK WHT TEMPO YLO1

TAF TAF EGUW
Valid from the 17 at 21:00 until the 18 at 02:00 UTC


172004Z 1721/1802 02008KT 9999 SCT015 BKN025
BECMG 1721/1723 6000 BR BKN005
PROB30
TEMPO 1723/1802 4000 SHRA



MET'MAP, your aeronautical weather chart ! - Copyright ORBIFLY December 2007 - Disclaimer

ORBIFLY MET'MAP TEAM :

Programming & Development : Alexandra Zaïnal
Concept & original design : Baudouin d'Aumeries
Assistance for programming : Marc-Olivier Méhu
Technical & hardware support : Manuel Goepfert

Contact : metmap@orbifly.com




SOURCES & CREDITS :

   NOAA